sensor_id;sensor_type;location;lat;lon;timestamp;P1;durP1;ratioP1;P2;durP2;ratioP2
15557;SDS011;7880;50.110;9.372;2023-08-17T00:01:00;1.7692307692307692;;;1.1999999999999997;;
15557;SDS011;7880;50.110;9.372;2023-08-17T00:06:08;4.507692307692308;;;1.0999999999999999;;
15557;SDS011;7880;50.110;9.372;2023-08-17T00:11:14;1.4;;;1.0;;
15557;SDS011;7880;50.110;9.372;2023-08-17T00:16:16;1.530769230769231;;;1.0307692307692307;;
15557;SDS011;7880;50.110;9.372;2023-08-17T00:21:18;1.1307692307692305;;;1.0999999999999999;;
15557;SDS011;7880;50.110;9.372;2023-08-17T00:26:23;1.5;;;1.1999999999999997;;
15557;SDS011;7880;50.110;9.372;2023-08-17T00:31:29;2.0538461538461537;;;1.1999999999999997;;
15557;SDS011;7880;50.110;9.372;2023-08-17T00:36:31;1.0999999999999999;;;1.0;;
15557;SDS011;7880;50.110;9.372;2023-08-17T00:41:36;1.0999999999999999;;;1.0;;
15557;SDS011;7880;50.110;9.372;2023-08-17T00:46:42;1.5;;;1.3692307692307695;;
15557;SDS011;7880;50.110;9.372;2023-08-17T00:51:47;1.3000000000000003;;;1.1999999999999997;;
15557;SDS011;7880;50.110;9.372;2023-08-17T00:56:54;1.3000000000000003;;;1.1999999999999997;;
15557;SDS011;7880;50.110;9.372;2023-08-17T01:01:58;1.3000000000000003;;;1.1999999999999997;;
15557;SDS011;7880;50.110;9.372;2023-08-17T01:07:02;1.5;;;1.2307692307692308;;
15557;SDS011;7880;50.110;9.372;2023-08-17T01:12:46;2.469230769230769;;;1.4;;
15557;SDS011;7880;50.110;9.372;2023-08-17T01:17:33;1.3000000000000003;;;1.1999999999999997;;
15557;SDS011;7880;50.110;9.372;2023-08-17T01:22:37;2.1000000000000005;;;1.0;;
15557;SDS011;7880;50.110;9.372;2023-08-17T01:27:42;2.369230769230769;;;1.1307692307692305;;
15557;SDS011;7880;50.110;9.372;2023-08-17T01:32:49;2.369230769230769;;;1.0999999999999999;;
15557;SDS011;7880;50.110;9.372;2023-08-17T01:37:53;1.3000000000000003;;;1.0;;
15557;SDS011;7880;50.110;9.372;2023-08-17T01:42:57;1.0;;;0.9000000000000002;;
15557;SDS011;7880;50.110;9.372;2023-08-17T01:48:01;1.5;;;1.4;;
15557;SDS011;7880;50.110;9.372;2023-08-17T01:53:11;1.0;;;0.9000000000000002;;
15557;SDS011;7880;50.110;9.372;2023-08-17T01:58:09;0.8692307692307696;;;0.8;;
15557;SDS011;7880;50.110;9.372;2023-08-17T02:03:13;2.469230769230769;;;0.9692307692307693;;
15557;SDS011;7880;50.110;9.372;2023-08-17T02:08:18;1.1307692307692305;;;1.0307692307692307;;
15557;SDS011;7880;50.110;9.372;2023-08-17T02:13:34;2.569230769230769;;;0.8307692307692307;;
15557;SDS011;7880;50.110;9.372;2023-08-17T02:18:26;1.223076923076923;;;1.0307692307692307;;
15557;SDS011;7880;50.110;9.372;2023-08-17T02:23:31;1.4923076923076926;;;1.2307692307692308;;
15557;SDS011;7880;50.110;9.372;2023-08-17T02:28:35;3.453846153846153;;;0.8230769230769233;;
15557;SDS011;7880;50.110;9.372;2023-08-17T02:33:42;3.0;;;1.3000000000000003;;
15557;SDS011;7880;50.110;9.372;2023-08-17T02:38:46;1.4;;;1.3000000000000003;;
15557;SDS011;7880;50.110;9.372;2023-08-17T02:43:49;2.7;;;0.8;;
15557;SDS011;7880;50.110;9.372;2023-08-17T02:48:53;2.669230769230769;;;1.0;;
15557;SDS011;7880;50.110;9.372;2023-08-17T02:53:58;1.3000000000000003;;;0.7692307692307689;;
15557;SDS011;7880;50.110;9.372;2023-08-17T02:59:02;0.9692307692307693;;;0.8;;
15557;SDS011;7880;50.110;9.372;2023-08-17T03:04:06;2.0;;;1.330769230769231;;
15557;SDS011;7880;50.110;9.372;2023-08-17T03:09:14;1.3000000000000003;;;1.1999999999999997;;
15557;SDS011;7880;50.110;9.372;2023-08-17T03:13:30;1.361538461538462;;;1.2615384615384615;;
15557;SDS011;7880;50.110;9.372;2023-08-17T03:18:35;14.569230769230773;;;3.7692307692307705;;
15557;SDS011;7880;50.110;9.372;2023-08-17T03:23:39;2.469230769230769;;;1.0999999999999999;;
15557;SDS011;7880;50.110;9.372;2023-08-17T03:28:44;0.9000000000000002;;;0.9000000000000002;;
15557;SDS011;7880;50.110;9.372;2023-08-17T03:33:52;0.8;;;0.8;;
15557;SDS011;7880;50.110;9.372;2023-08-17T03:38:53;1.0999999999999999;;;1.0;;
15557;SDS011;7880;50.110;9.372;2023-08-17T03:43:56;0.9000000000000002;;;0.9000000000000002;;
15557;SDS011;7880;50.110;9.372;2023-08-17T03:49:00;0.8;;;0.8;;
15557;SDS011;7880;50.110;9.372;2023-08-17T03:54:04;0.7;;;0.7;;
15557;SDS011;7880;50.110;9.372;2023-08-17T03:59:09;2.3999999999999995;;;0.8;;
15557;SDS011;7880;50.110;9.372;2023-08-17T04:04:14;3.238461538461539;;;1.0999999999999999;;
15557;SDS011;7880;50.110;9.372;2023-08-17T04:09:20;2.253846153846154;;;0.8692307692307695;;
15557;SDS011;7880;50.110;9.372;2023-08-17T04:14:22;1.5;;;1.3000000000000003;;
15557;SDS011;7880;50.110;9.372;2023-08-17T04:19:36;1.3000000000000003;;;1.0;;
15557;SDS011;7880;50.110;9.372;2023-08-17T04:24:32;1.2307692307692308;;;1.1307692307692305;;
15557;SDS011;7880;50.110;9.372;2023-08-17T04:29:38;1.0;;;0.7692307692307689;;
15557;SDS011;7880;50.110;9.372;2023-08-17T04:34:41;0.9000000000000002;;;0.9000000000000002;;
15557;SDS011;7880;50.110;9.372;2023-08-17T04:39:49;0.7307692307692311;;;0.7307692307692311;;
15557;SDS011;7880;50.110;9.372;2023-08-17T04:44:49;0.9000000000000002;;;0.9000000000000002;;
15557;SDS011;7880;50.110;9.372;2023-08-17T04:49:53;0.5999999999999999;;;0.5999999999999999;;
15557;SDS011;7880;50.110;9.372;2023-08-17T04:54:57;2.469230769230769;;;0.8;;
15557;SDS011;7880;50.110;9.372;2023-08-17T05:00:00;0.7;;;0.7;;
15557;SDS011;7880;50.110;9.372;2023-08-17T05:05:04;1.2692307692307692;;;1.0;;
15557;SDS011;7880;50.110;9.372;2023-08-17T05:10:15;1.446153846153846;;;0.9000000000000002;;
15557;SDS011;7880;50.110;9.372;2023-08-17T05:15:12;1.5;;;1.4;;
15557;SDS011;7880;50.110;9.372;2023-08-17T05:20:16;1.5;;;1.4;;
15557;SDS011;7880;50.110;9.372;2023-08-17T05:25:22;2.169230769230769;;;1.5;;
15557;SDS011;7880;50.110;9.372;2023-08-17T05:30:26;2.030769230769231;;;1.8307692307692305;;
15557;SDS011;7880;50.110;9.372;2023-08-17T05:35:30;1.8000000000000005;;;1.6999999999999995;;
15557;SDS011;7880;50.110;9.372;2023-08-17T05:40:36;3.369230769230768;;;1.3000000000000003;;
15557;SDS011;7880;50.110;9.372;2023-08-17T05:45:39;1.8000000000000005;;;1.5692307692307692;;
15557;SDS011;7880;50.110;9.372;2023-08-17T05:50:46;2.7692307692307705;;;1.0999999999999999;;
15557;SDS011;7880;50.110;9.372;2023-08-17T05:55:47;1.8999999999999997;;;1.8000000000000005;;
15557;SDS011;7880;50.110;9.372;2023-08-17T06:00:51;1.9307692307692308;;;1.6999999999999995;;
15557;SDS011;7880;50.110;9.372;2023-08-17T06:05:56;3.438461538461538;;;2.469230769230769;;
15557;SDS011;7880;50.110;9.372;2023-08-17T06:11:02;2.369230769230769;;;1.3000000000000003;;
15557;SDS011;7880;50.110;9.372;2023-08-17T06:16:05;4.33076923076923;;;1.8999999999999997;;
15557;SDS011;7880;50.110;9.372;2023-08-17T06:21:09;2.161538461538462;;;1.6307692307692305;;
15557;SDS011;7880;50.110;9.372;2023-08-17T06:26:13;2.969230769230769;;;1.6999999999999995;;
15557;SDS011;7880;50.110;9.372;2023-08-17T06:31:35;3.2692307692307705;;;2.5;;
15557;SDS011;7880;50.110;9.372;2023-08-17T06:36:24;3.869230769230768;;;2.1307692307692307;;
15557;SDS011;7880;50.110;9.372;2023-08-17T06:41:31;2.7;;;2.5;;
15557;SDS011;7880;50.110;9.372;2023-08-17T06:46:30;3.169230769230769;;;2.1999999999999997;;
15557;SDS011;7880;50.110;9.372;2023-08-17T06:51:39;4.738461538461538;;;3.838461538461539;;
15557;SDS011;7880;50.110;9.372;2023-08-17T06:56:42;2.7307692307692295;;;2.1999999999999997;;
15557;SDS011;7880;50.110;9.372;2023-08-17T07:01:41;4.438461538461538;;;2.1999999999999997;;
15557;SDS011;7880;50.110;9.372;2023-08-17T07:06:45;2.0;;;1.8000000000000005;;
15557;SDS011;7880;50.110;9.372;2023-08-17T07:11:49;2.261538461538461;;;2.1307692307692307;;
15557;SDS011;7880;50.110;9.372;2023-08-17T07:16:57;2.269230769230769;;;1.8999999999999997;;
15557;SDS011;7880;50.110;9.372;2023-08-17T07:21:57;2.0615384615384613;;;1.9307692307692308;;
15557;SDS011;7880;50.110;9.372;2023-08-17T07:27:02;2.899999999999999;;;2.530769230769231;;
15557;SDS011;7880;50.110;9.372;2023-08-17T07:32:07;3.6692307692307695;;;2.7692307692307705;;
15557;SDS011;7880;50.110;9.372;2023-08-17T07:37:14;9.846153846153847;;;2.7307692307692295;;
15557;SDS011;7880;50.110;9.372;2023-08-17T07:42:17;3.7692307692307705;;;2.969230769230769;;
15557;SDS011;7880;50.110;9.372;2023-08-17T07:47:27;3.399999999999999;;;3.100000000000001;;
15557;SDS011;7880;50.110;9.372;2023-08-17T07:52:36;3.5;;;3.2;;
15557;SDS011;7880;50.110;9.372;2023-08-17T07:57:32;4.530769230769231;;;3.2999999999999994;;
15557;SDS011;7880;50.110;9.372;2023-08-17T08:02:36;5.307692307692306;;;3.369230769230768;;
15557;SDS011;7880;50.110;9.372;2023-08-17T08:07:42;3.969230769230769;;;3.06923076923077;;
15557;SDS011;7880;50.110;9.372;2023-08-17T08:12:46;4.0;;;3.7000000000000006;;
15557;SDS011;7880;50.110;9.372;2023-08-17T08:17:48;4.761538461538462;;;3.6307692307692316;;
15557;SDS011;7880;50.110;9.372;2023-08-17T08:22:52;4.769230769230769;;;3.5;;
15557;SDS011;7880;50.110;9.372;2023-08-17T08:27:58;6.507692307692308;;;3.969230769230769;;
15557;SDS011;7880;50.110;9.372;2023-08-17T08:33:01;4.269230769230769;;;3.630769230769232;;
15557;SDS011;7880;50.110;9.372;2023-08-17T08:38:05;4.3999999999999995;;;4.0;;
15557;SDS011;7880;50.110;9.372;2023-08-17T08:43:09;3.7000000000000006;;;3.399999999999999;;
15557;SDS011;7880;50.110;9.372;2023-08-17T08:48:21;5.200000000000001;;;4.700000000000001;;
15557;SDS011;7880;50.110;9.372;2023-08-17T08:53:20;5.200000000000001;;;4.23076923076923;;
15557;SDS011;7880;50.110;9.372;2023-08-17T08:58:26;3.915384615384615;;;3.2923076923076917;;
15557;SDS011;7880;50.110;9.372;2023-08-17T09:03:30;4.3999999999999995;;;4.0;;
15557;SDS011;7880;50.110;9.372;2023-08-17T09:08:32;5.0;;;4.0;;
15557;SDS011;7880;50.110;9.372;2023-08-17T09:13:38;3.7999999999999994;;;3.5;;
15557;SDS011;7880;50.110;9.372;2023-08-17T09:18:41;4.438461538461538;;;3.7000000000000006;;
15557;SDS011;7880;50.110;9.372;2023-08-17T09:23:51;4.2384615384615385;;;3.0;;
15557;SDS011;7880;50.110;9.372;2023-08-17T09:28:51;2.7692307692307705;;;2.569230769230769;;
15557;SDS011;7880;50.110;9.372;2023-08-17T09:33:55;3.2999999999999994;;;3.100000000000001;;
15557;SDS011;7880;50.110;9.372;2023-08-17T09:39:00;3.2;;;2.899999999999999;;
15557;SDS011;7880;50.110;9.372;2023-08-17T09:44:06;3.130769230769232;;;2.830769230769231;;
15557;SDS011;7880;50.110;9.372;2023-08-17T09:49:09;5.938461538461538;;;3.2692307692307705;;
15557;SDS011;7880;50.110;9.372;2023-08-17T09:54:18;3.5;;;3.2;;
15557;SDS011;7880;50.110;9.372;2023-08-17T09:59:16;3.5;;;3.130769230769232;;
15557;SDS011;7880;50.110;9.372;2023-08-17T10:04:25;3.06923076923077;;;2.7692307692307705;;
15557;SDS011;7880;50.110;9.372;2023-08-17T10:09:25;4.369230769230769;;;2.369230769230769;;
15557;SDS011;7880;50.110;9.372;2023-08-17T10:14:36;3.369230769230768;;;2.569230769230769;;
15557;SDS011;7880;50.110;9.372;2023-08-17T10:19:36;3.2692307692307705;;;2.969230769230769;;
15557;SDS011;7880;50.110;9.372;2023-08-17T10:24:38;3.6692307692307695;;;2.6000000000000005;;
15557;SDS011;7880;50.110;9.372;2023-08-17T10:29:47;3.1923076923076925;;;2.630769230769231;;
15557;SDS011;7880;50.110;9.372;2023-08-17T10:34:46;3.169230769230769;;;2.6000000000000005;;
15557;SDS011;7880;50.110;9.372;2023-08-17T10:39:53;4.107692307692307;;;3.06923076923077;;
15557;SDS011;7880;50.110;9.372;2023-08-17T10:45:01;4.16923076923077;;;2.7;;
15557;SDS011;7880;50.110;9.372;2023-08-17T10:50:20;2.8076923076923066;;;2.6076923076923078;;
15557;SDS011;7880;50.110;9.372;2023-08-17T10:55:08;4.230769230769233;;;2.669230769230769;;
15557;SDS011;7880;50.110;9.372;2023-08-17T11:00:13;3.130769230769232;;;2.830769230769231;;
15557;SDS011;7880;50.110;9.372;2023-08-17T11:05:30;2.630769230769231;;;2.430769230769231;;
15557;SDS011;7880;50.110;9.372;2023-08-17T11:10:35;2.830769230769231;;;2.430769230769231;;
15557;SDS011;7880;50.110;9.372;2023-08-17T11:15:42;2.7307692307692295;;;2.530769230769231;;
15557;SDS011;7880;50.110;9.372;2023-08-17T11:20:40;2.830769230769231;;;2.630769230769231;;
15557;SDS011;7880;50.110;9.372;2023-08-17T11:25:44;2.9615384615384617;;;2.530769230769231;;
15557;SDS011;7880;50.110;9.372;2023-08-17T11:30:56;2.8692307692307684;;;2.369230769230769;;
15557;SDS011;7880;50.110;9.372;2023-08-17T11:35:55;4.338461538461538;;;2.5;;
15557;SDS011;7880;50.110;9.372;2023-08-17T11:41:04;2.630769230769231;;;2.430769230769231;;
15557;SDS011;7880;50.110;9.372;2023-08-17T11:46:06;3.56923076923077;;;2.6000000000000005;;
15557;SDS011;7880;50.110;9.372;2023-08-17T11:51:12;2.761538461538461;;;2.530769230769231;;
15557;SDS011;7880;50.110;9.372;2023-08-17T11:56:15;4.761538461538462;;;3.100000000000001;;
15557;SDS011;7880;50.110;9.372;2023-08-17T12:01:51;3.338461538461539;;;2.7;;
15557;SDS011;7880;50.110;9.372;2023-08-17T12:06:32;3.338461538461539;;;2.7;;
15557;SDS011;7880;50.110;9.372;2023-08-17T12:11:39;4.0;;;2.430769230769231;;
15557;SDS011;7880;50.110;9.372;2023-08-17T12:16:49;4.299999999999999;;;3.346153846153845;;
15557;SDS011;7880;50.110;9.372;2023-08-17T12:21:45;5.4;;;3.130769230769232;;
15557;SDS011;7880;50.110;9.372;2023-08-17T12:26:50;3.2999999999999994;;;3.0;;
15557;SDS011;7880;50.110;9.372;2023-08-17T12:31:53;3.0;;;2.8;;
15557;SDS011;7880;50.110;9.372;2023-08-17T12:36:57;3.399999999999999;;;3.100000000000001;;
15557;SDS011;7880;50.110;9.372;2023-08-17T12:42:03;3.6384615384615384;;;3.100000000000001;;
15557;SDS011;7880;50.110;9.372;2023-08-17T12:47:08;4.038461538461538;;;3.061538461538462;;
15557;SDS011;7880;50.110;9.372;2023-08-17T12:52:13;3.7999999999999994;;;3.399999999999999;;
15557;SDS011;7880;50.110;9.372;2023-08-17T12:57:17;5.338461538461538;;;2.899999999999999;;
15557;SDS011;7880;50.110;9.372;2023-08-17T13:02:25;3.892307692307693;;;3.030769230769231;;
15557;SDS011;7880;50.110;9.372;2023-08-17T13:07:27;5.838461538461538;;;3.100000000000001;;
15557;SDS011;7880;50.110;9.372;2023-08-17T13:12:30;5.161538461538462;;;3.4692307692307693;;
15557;SDS011;7880;50.110;9.372;2023-08-17T13:17:36;3.869230769230768;;;3.030769230769231;;
15557;SDS011;7880;50.110;9.372;2023-08-17T13:22:07;7.938461538461538;;;3.399999999999999;;
15557;SDS011;7880;50.110;9.372;2023-08-17T13:27:07;4.469230769230769;;;3.600000000000001;;
15557;SDS011;7880;50.110;9.372;2023-08-17T13:32:11;6.1692307692307695;;;3.530769230769231;;
15557;SDS011;7880;50.110;9.372;2023-08-17T13:37:19;4.269230769230769;;;2.899999999999999;;
15557;SDS011;7880;50.110;9.372;2023-08-17T13:42:22;6.707692307692307;;;3.2692307692307705;;
15557;SDS011;7880;50.110;9.372;2023-08-17T13:47:28;2.899999999999999;;;2.7;;
15557;SDS011;7880;50.110;9.372;2023-08-17T13:52:32;3.399999999999999;;;3.100000000000001;;
15557;SDS011;7880;50.110;9.372;2023-08-17T13:57:36;3.3923076923076914;;;2.4461538461538455;;
15557;SDS011;7880;50.110;9.372;2023-08-17T14:02:41;2.5;;;2.3000000000000003;;
15557;SDS011;7880;50.110;9.372;2023-08-17T14:07:49;3.169230769230769;;;2.7;;
15557;SDS011;7880;50.110;9.372;2023-08-17T14:12:51;4.138461538461539;;;3.0;;
15557;SDS011;7880;50.110;9.372;2023-08-17T14:17:59;4.638461538461538;;;2.969230769230769;;
15557;SDS011;7880;50.110;9.372;2023-08-17T14:23:13;7.407692307692309;;;3.2;;
15557;SDS011;7880;50.110;9.372;2023-08-17T14:28:05;3.530769230769231;;;2.8615384615384616;;
15557;SDS011;7880;50.110;9.372;2023-08-17T14:33:10;3.0;;;2.8;;
15557;SDS011;7880;50.110;9.372;2023-08-17T14:38:14;2.3999999999999995;;;2.1999999999999997;;
15557;SDS011;7880;50.110;9.372;2023-08-17T14:43:18;3.7307692307692295;;;2.899999999999999;;
15557;SDS011;7880;50.110;9.372;2023-08-17T14:48:23;3.7999999999999994;;;2.7307692307692295;;
15557;SDS011;7880;50.110;9.372;2023-08-17T14:53:27;4.738461538461538;;;2.969230769230769;;
15557;SDS011;7880;50.110;9.372;2023-08-17T14:58:32;4.161538461538461;;;3.100000000000001;;
15557;SDS011;7880;50.110;9.372;2023-08-17T15:03:36;7.707692307692307;;;3.100000000000001;;
15557;SDS011;7880;50.110;9.372;2023-08-17T15:08:42;3.600000000000001;;;2.830769230769231;;
15557;SDS011;7880;50.110;9.372;2023-08-17T15:13:45;3.453846153846153;;;2.546153846153847;;
15557;SDS011;7880;50.110;9.372;2023-08-17T15:18:50;5.038461538461539;;;2.469230769230769;;
15557;SDS011;7880;50.110;9.372;2023-08-17T15:24:05;3.6384615384615384;;;2.469230769230769;;
15557;SDS011;7880;50.110;9.372;2023-08-17T15:28:58;3.7000000000000006;;;2.7;;
15557;SDS011;7880;50.110;9.372;2023-08-17T15:34:06;5.938461538461538;;;2.469230769230769;;
15557;SDS011;7880;50.110;9.372;2023-08-17T15:39:09;4.161538461538461;;;2.6000000000000005;;
15557;SDS011;7880;50.110;9.372;2023-08-17T15:44:11;6.038461538461541;;;2.8;;
15557;SDS011;7880;50.110;9.372;2023-08-17T15:49:15;2.7307692307692295;;;2.5;;
15557;SDS011;7880;50.110;9.372;2023-08-17T15:54:22;3.923076923076922;;;2.3999999999999995;;
15557;SDS011;7880;50.110;9.372;2023-08-17T15:59:24;3.4230769230769242;;;2.392307692307693;;
15557;SDS011;7880;50.110;9.372;2023-08-17T16:04:29;2.5;;;2.3000000000000003;;
15557;SDS011;7880;50.110;9.372;2023-08-17T16:09:37;2.969230769230769;;;2.0;;
15557;SDS011;7880;50.110;9.372;2023-08-17T16:14:46;2.030769230769231;;;1.8307692307692305;;
15557;SDS011;7880;50.110;9.372;2023-08-17T16:19:48;2.392307692307693;;;2.1000000000000005;;
15557;SDS011;7880;50.110;9.372;2023-08-17T16:24:53;4.392307692307693;;;2.261538461538461;;
15557;SDS011;7880;50.110;9.372;2023-08-17T16:29:56;4.392307692307693;;;2.1307692307692307;;
15557;SDS011;7880;50.110;9.372;2023-08-17T16:35:03;3.56923076923077;;;2.3000000000000003;;
15557;SDS011;7880;50.110;9.372;2023-08-17T16:40:05;2.738461538461539;;;2.169230769230769;;
15557;SDS011;7880;50.110;9.372;2023-08-17T16:45:19;4.438461538461538;;;2.1000000000000005;;
15557;SDS011;7880;50.110;9.372;2023-08-17T16:50:15;5.207692307692308;;;2.0692307692307694;;
15557;SDS011;7880;50.110;9.372;2023-08-17T16:55:17;7.538461538461538;;;2.4538461538461536;;
15557;SDS011;7880;50.110;9.372;2023-08-17T17:00:22;2.9230769230769242;;;1.9307692307692308;;
15557;SDS011;7880;50.110;9.372;2023-08-17T17:05:25;2.469230769230769;;;1.969230769230769;;
15557;SDS011;7880;50.110;9.372;2023-08-17T17:10:29;2.8692307692307684;;;1.8000000000000005;;
15557;SDS011;7880;50.110;9.372;2023-08-17T17:15:43;3.761538461538461;;;2.3999999999999995;;
15557;SDS011;7880;50.110;9.372;2023-08-17T17:20:41;2.8;;;2.6000000000000005;;
15557;SDS011;7880;50.110;9.372;2023-08-17T17:25:47;4.299999999999999;;;2.899999999999999;;
15557;SDS011;7880;50.110;9.372;2023-08-17T17:30:54;4.269230769230769;;;2.8692307692307684;;
15557;SDS011;7880;50.110;9.372;2023-08-17T17:36:06;5.46923076923077;;;3.2999999999999994;;
15557;SDS011;7880;50.110;9.372;2023-08-17T17:41:03;4.16923076923077;;;2.8;;
15557;SDS011;7880;50.110;9.372;2023-08-17T17:46:08;3.56923076923077;;;3.2;;
15557;SDS011;7880;50.110;9.372;2023-08-17T17:51:15;4.3999999999999995;;;3.2692307692307705;;
15557;SDS011;7880;50.110;9.372;2023-08-17T17:56:18;4.530769230769231;;;3.2307692307692295;;
15557;SDS011;7880;50.110;9.372;2023-08-17T18:01:23;4.269230769230769;;;3.399999999999999;;
15557;SDS011;7880;50.110;9.372;2023-08-17T18:06:40;4.06923076923077;;;2.7;;
15557;SDS011;7880;50.110;9.372;2023-08-17T18:11:32;3.0;;;2.530769230769231;;
15557;SDS011;7880;50.110;9.372;2023-08-17T18:16:39;3.6153846153846154;;;3.06923076923077;;
15557;SDS011;7880;50.110;9.372;2023-08-17T18:21:43;5.138461538461538;;;3.2692307692307705;;
15557;SDS011;7880;50.110;9.372;2023-08-17T18:26:13;3.100000000000001;;;2.8;;
15557;SDS011;7880;50.110;9.372;2023-08-17T18:31:22;3.938461538461538;;;2.969230769230769;;
15557;SDS011;7880;50.110;9.372;2023-08-17T18:36:32;3.2999999999999994;;;2.93076923076923;;
15557;SDS011;7880;50.110;9.372;2023-08-17T18:41:28;3.2999999999999994;;;3.0;;
15557;SDS011;7880;50.110;9.372;2023-08-17T18:46:35;3.738461538461539;;;3.369230769230768;;
15557;SDS011;7880;50.110;9.372;2023-08-17T18:51:39;3.7692307692307705;;;3.030769230769231;;
15557;SDS011;7880;50.110;9.372;2023-08-17T18:56:45;4.16923076923077;;;3.100000000000001;;
15557;SDS011;7880;50.110;9.372;2023-08-17T19:01:51;3.7230769230769236;;;2.7307692307692295;;
15557;SDS011;7880;50.110;9.372;2023-08-17T19:06:53;6.438461538461538;;;3.2307692307692295;;
15557;SDS011;7880;50.110;9.372;2023-08-17T19:11:58;3.969230769230769;;;3.56923076923077;;
15557;SDS011;7880;50.110;9.372;2023-08-17T19:17:01;4.092307692307691;;;3.2999999999999994;;
15557;SDS011;7880;50.110;9.372;2023-08-17T19:22:09;7.207692307692307;;;3.56923076923077;;
15557;SDS011;7880;50.110;9.372;2023-08-17T19:27:15;5.038461538461539;;;3.738461538461539;;
15557;SDS011;7880;50.110;9.372;2023-08-17T19:32:28;6.261538461538463;;;3.600000000000001;;
15557;SDS011;7880;50.110;9.372;2023-08-17T19:37:21;3.399999999999999;;;3.100000000000001;;
15557;SDS011;7880;50.110;9.372;2023-08-17T19:42:34;4.6692307692307695;;;3.3307692307692305;;
15557;SDS011;7880;50.110;9.372;2023-08-17T19:47:32;3.56923076923077;;;3.2692307692307705;;
15557;SDS011;7880;50.110;9.372;2023-08-17T19:52:36;4.938461538461538;;;3.469230769230769;;
15557;SDS011;7880;50.110;9.372;2023-08-17T19:57:43;5.200000000000001;;;3.7307692307692295;;
15557;SDS011;7880;50.110;9.372;2023-08-17T20:02:46;6.207692307692307;;;3.600000000000001;;
15557;SDS011;7880;50.110;9.372;2023-08-17T20:07:58;7.438461538461538;;;3.600000000000001;;
15557;SDS011;7880;50.110;9.372;2023-08-17T20:13:05;3.56923076923077;;;3.2692307692307705;;
15557;SDS011;7880;50.110;9.372;2023-08-17T20:18:09;6.838461538461539;;;4.200000000000001;;
15557;SDS011;7880;50.110;9.372;2023-08-17T20:23:15;4.200000000000001;;;3.899999999999999;;
15557;SDS011;7880;50.110;9.372;2023-08-17T20:28:21;3.93076923076923;;;3.630769230769232;;
15557;SDS011;7880;50.110;9.372;2023-08-17T20:33:23;5.538461538461541;;;3.7000000000000006;;
15557;SDS011;7880;50.110;9.372;2023-08-17T20:38:25;6.200000000000002;;;5.6;;
15557;SDS011;7880;50.110;9.372;2023-08-17T20:43:30;5.730769230769231;;;5.230769230769231;;
15557;SDS011;7880;50.110;9.372;2023-08-17T20:48:42;7.438461538461538;;;5.230769230769231;;
15557;SDS011;7880;50.110;9.372;2023-08-17T20:53:40;5.769230769230769;;;4.799999999999999;;
15557;SDS011;7880;50.110;9.372;2023-08-17T20:58:47;5.630769230769232;;;4.730769230769231;;
15557;SDS011;7880;50.110;9.372;2023-08-17T21:03:57;5.3307692307692305;;;4.830769230769231;;
15557;SDS011;7880;50.110;9.372;2023-08-17T21:09:00;7.538461538461541;;;5.700000000000002;;
15557;SDS011;7880;50.110;9.372;2023-08-17T21:14:07;7.092307692307694;;;5.592307692307694;;
15557;SDS011;7880;50.110;9.372;2023-08-17T21:19:13;7.330769230769231;;;6.730769230769231;;
15557;SDS011;7880;50.110;9.372;2023-08-17T21:24:19;8.738461538461538;;;5.53076923076923;;
15557;SDS011;7880;50.110;9.372;2023-08-17T21:29:24;7.038461538461541;;;5.6;;
15557;SDS011;7880;50.110;9.372;2023-08-17T21:34:31;7.161538461538461;;;6.0;;
15557;SDS011;7880;50.110;9.372;2023-08-17T21:39:32;6.161538461538464;;;5.561538461538461;;
15557;SDS011;7880;50.110;9.372;2023-08-17T21:44:47;5.9;;;5.299999999999999;;
15557;SDS011;7880;50.110;9.372;2023-08-17T21:49:49;7.5307692307692315;;;5.200000000000001;;
15557;SDS011;7880;50.110;9.372;2023-08-17T21:54:49;7.13846153846154;;;4.96923076923077;;
15557;SDS011;7880;50.110;9.372;2023-08-17T21:59:57;4.630769230769232;;;4.23076923076923;;
15557;SDS011;7880;50.110;9.372;2023-08-17T22:04:59;5.723076923076923;;;4.730769230769231;;
15557;SDS011;7880;50.110;9.372;2023-08-17T22:10:13;5.43076923076923;;;4.93076923076923;;
15557;SDS011;7880;50.110;9.372;2023-08-17T22:15:10;5.338461538461538;;;4.769230769230769;;
15557;SDS011;7880;50.110;9.372;2023-08-17T22:20:13;9.769230769230768;;;4.5;;
15557;SDS011;7880;50.110;9.372;2023-08-17T22:25:32;7.06923076923077;;;4.8999999999999995;;
15557;SDS011;7880;50.110;9.372;2023-08-17T22:30:25;5.5;;;4.130769230769232;;
15557;SDS011;7880;50.110;9.372;2023-08-17T22:35:30;5.046153846153846;;;4.299999999999999;;
15557;SDS011;7880;50.110;9.372;2023-08-17T22:40:35;7.338461538461539;;;4.6000000000000005;;
15557;SDS011;7880;50.110;9.372;2023-08-17T22:45:39;4.33076923076923;;;3.7692307692307705;;
15557;SDS011;7880;50.110;9.372;2023-08-17T22:50:45;7.200000000000002;;;4.130769230769232;;
15557;SDS011;7880;50.110;9.372;2023-08-17T22:55:47;8.476923076923077;;;4.369230769230769;;
15557;SDS011;7880;50.110;9.372;2023-08-17T23:00:54;6.346153846153846;;;4.530769230769231;;
15557;SDS011;7880;50.110;9.372;2023-08-17T23:06:04;5.061538461538462;;;4.2615384615384615;;
15557;SDS011;7880;50.110;9.372;2023-08-17T23:11:02;5.03076923076923;;;4.530769230769231;;